sensor_id;sensor_type;location;lat;lon;timestamp;P1;durP1;ratioP1;P2;durP2;ratioP2
27666;SDS011;15074;50.940;5.282;2023-09-19T00:02:16;8.00;;;2.63;;
27666;SDS011;15074;50.940;5.282;2023-09-19T00:04:42;7.95;;;1.75;;
27666;SDS011;15074;50.940;5.282;2023-09-19T00:07:08;11.45;;;2.28;;
27666;SDS011;15074;50.940;5.282;2023-09-19T00:09:34;5.32;;;1.65;;
27666;SDS011;15074;50.940;5.282;2023-09-19T00:14:29;6.53;;;1.70;;
27666;SDS011;15074;50.940;5.282;2023-09-19T00:16:58;5.60;;;2.10;;
27666;SDS011;15074;50.940;5.282;2023-09-19T00:19:25;6.77;;;1.97;;
27666;SDS011;15074;50.940;5.282;2023-09-19T00:21:51;4.70;;;1.92;;
27666;SDS011;15074;50.940;5.282;2023-09-19T00:24:18;7.90;;;1.92;;
27666;SDS011;15074;50.940;5.282;2023-09-19T00:26:43;6.78;;;1.40;;
27666;SDS011;15074;50.940;5.282;2023-09-19T00:29:12;8.40;;;2.20;;
27666;SDS011;15074;50.940;5.282;2023-09-19T00:31:43;8.52;;;2.42;;
27666;SDS011;15074;50.940;5.282;2023-09-19T00:34:09;6.93;;;1.65;;
27666;SDS011;15074;50.940;5.282;2023-09-19T00:36:36;5.72;;;2.05;;
27666;SDS011;15074;50.940;5.282;2023-09-19T00:39:04;11.40;;;2.05;;
27666;SDS011;15074;50.940;5.282;2023-09-19T00:41:34;6.07;;;1.92;;
27666;SDS011;15074;50.940;5.282;2023-09-19T00:44:03;4.28;;;1.73;;
27666;SDS011;15074;50.940;5.282;2023-09-19T00:46:31;4.30;;;1.50;;
27666;SDS011;15074;50.940;5.282;2023-09-19T00:51:24;9.18;;;2.10;;
27666;SDS011;15074;50.940;5.282;2023-09-19T00:53:51;8.52;;;2.20;;
27666;SDS011;15074;50.940;5.282;2023-09-19T00:56:18;5.47;;;1.80;;
27666;SDS011;15074;50.940;5.282;2023-09-19T00:58:47;4.95;;;1.67;;
27666;SDS011;15074;50.940;5.282;2023-09-19T01:01:13;12.00;;;2.10;;
27666;SDS011;15074;50.940;5.282;2023-09-19T01:03:40;5.35;;;1.52;;
27666;SDS011;15074;50.940;5.282;2023-09-19T01:06:06;8.93;;;1.33;;
27666;SDS011;15074;50.940;5.282;2023-09-19T01:08:33;8.68;;;1.90;;
27666;SDS011;15074;50.940;5.282;2023-09-19T01:11:01;3.33;;;1.20;;
27666;SDS011;15074;50.940;5.282;2023-09-19T01:16:23;9.52;;;2.28;;
27666;SDS011;15074;50.940;5.282;2023-09-19T01:24:54;5.78;;;1.92;;
27666;SDS011;15074;50.940;5.282;2023-09-19T01:30:10;6.55;;;1.83;;
27666;SDS011;15074;50.940;5.282;2023-09-19T01:32:39;4.65;;;1.80;;
27666;SDS011;15074;50.940;5.282;2023-09-19T01:35:06;6.53;;;1.40;;
27666;SDS011;15074;50.940;5.282;2023-09-19T01:37:37;6.32;;;2.13;;
27666;SDS011;15074;50.940;5.282;2023-09-19T01:40:06;8.73;;;2.33;;
27666;SDS011;15074;50.940;5.282;2023-09-19T01:45:33;7.57;;;1.80;;
27666;SDS011;15074;50.940;5.282;2023-09-19T01:48:22;8.63;;;1.73;;
27666;SDS011;15074;50.940;5.282;2023-09-19T01:51:00;3.63;;;1.40;;
27666;SDS011;15074;50.940;5.282;2023-09-19T01:53:54;7.60;;;1.85;;
27666;SDS011;15074;50.940;5.282;2023-09-19T01:57:14;5.20;;;1.60;;
27666;SDS011;15074;50.940;5.282;2023-09-19T01:59:34;4.57;;;1.80;;
27666;SDS011;15074;50.940;5.282;2023-09-19T02:02:06;7.30;;;2.10;;
27666;SDS011;15074;50.940;5.282;2023-09-19T02:04:33;7.30;;;1.97;;
27666;SDS011;15074;50.940;5.282;2023-09-19T02:07:00;8.10;;;2.25;;
27666;SDS011;15074;50.940;5.282;2023-09-19T02:09:26;4.40;;;1.50;;
27666;SDS011;15074;50.940;5.282;2023-09-19T02:11:52;13.52;;;2.00;;
27666;SDS011;15074;50.940;5.282;2023-09-19T02:14:17;6.82;;;1.45;;
27666;SDS011;15074;50.940;5.282;2023-09-19T02:16:44;8.93;;;2.55;;
27666;SDS011;15074;50.940;5.282;2023-09-19T02:19:10;7.55;;;1.85;;
27666;SDS011;15074;50.940;5.282;2023-09-19T02:21:36;8.20;;;1.88;;
27666;SDS011;15074;50.940;5.282;2023-09-19T02:24:02;8.00;;;2.30;;
27666;SDS011;15074;50.940;5.282;2023-09-19T02:26:28;6.43;;;2.05;;
27666;SDS011;15074;50.940;5.282;2023-09-19T02:28:54;6.75;;;2.10;;
27666;SDS011;15074;50.940;5.282;2023-09-19T02:31:20;5.47;;;2.08;;
27666;SDS011;15074;50.940;5.282;2023-09-19T02:33:46;6.95;;;2.03;;
27666;SDS011;15074;50.940;5.282;2023-09-19T02:36:11;8.30;;;2.05;;
27666;SDS011;15074;50.940;5.282;2023-09-19T02:38:42;6.60;;;1.60;;
27666;SDS011;15074;50.940;5.282;2023-09-19T02:41:07;9.23;;;2.17;;
27666;SDS011;15074;50.940;5.282;2023-09-19T02:43:33;6.95;;;1.77;;
27666;SDS011;15074;50.940;5.282;2023-09-19T02:45:59;3.88;;;1.85;;
27666;SDS011;15074;50.940;5.282;2023-09-19T02:48:25;6.80;;;2.30;;
27666;SDS011;15074;50.940;5.282;2023-09-19T02:50:50;6.40;;;1.80;;
27666;SDS011;15074;50.940;5.282;2023-09-19T02:53:16;14.25;;;1.90;;
27666;SDS011;15074;50.940;5.282;2023-09-19T02:55:42;6.15;;;2.53;;
27666;SDS011;15074;50.940;5.282;2023-09-19T02:58:08;8.43;;;2.60;;
27666;SDS011;15074;50.940;5.282;2023-09-19T03:00:36;7.95;;;2.15;;
27666;SDS011;15074;50.940;5.282;2023-09-19T03:03:02;9.52;;;2.53;;
27666;SDS011;15074;50.940;5.282;2023-09-19T03:05:28;7.80;;;1.55;;
27666;SDS011;15074;50.940;5.282;2023-09-19T03:07:55;7.28;;;1.85;;
27666;SDS011;15074;50.940;5.282;2023-09-19T03:10:22;7.50;;;1.60;;
27666;SDS011;15074;50.940;5.282;2023-09-19T03:12:49;7.00;;;1.70;;
27666;SDS011;15074;50.940;5.282;2023-09-19T03:15:15;10.95;;;1.83;;
27666;SDS011;15074;50.940;5.282;2023-09-19T03:17:43;7.85;;;2.17;;
27666;SDS011;15074;50.940;5.282;2023-09-19T03:20:10;10.82;;;1.90;;
27666;SDS011;15074;50.940;5.282;2023-09-19T03:25:05;6.22;;;1.65;;
27666;SDS011;15074;50.940;5.282;2023-09-19T03:27:33;7.28;;;1.60;;
27666;SDS011;15074;50.940;5.282;2023-09-19T03:30:02;6.88;;;2.47;;
27666;SDS011;15074;50.940;5.282;2023-09-19T03:32:33;7.15;;;2.13;;
27666;SDS011;15074;50.940;5.282;2023-09-19T03:34:59;12.38;;;2.17;;
27666;SDS011;15074;50.940;5.282;2023-09-19T03:37:25;4.97;;;1.55;;
27666;SDS011;15074;50.940;5.282;2023-09-19T03:39:51;12.32;;;1.88;;
27666;SDS011;15074;50.940;5.282;2023-09-19T03:42:17;6.63;;;1.80;;
27666;SDS011;15074;50.940;5.282;2023-09-19T03:44:42;6.15;;;1.70;;
27666;SDS011;15074;50.940;5.282;2023-09-19T03:47:08;8.60;;;1.70;;
27666;SDS011;15074;50.940;5.282;2023-09-19T03:49:33;9.55;;;2.38;;
27666;SDS011;15074;50.940;5.282;2023-09-19T03:51:59;7.22;;;1.70;;
27666;SDS011;15074;50.940;5.282;2023-09-19T03:54:25;6.53;;;1.70;;
27666;SDS011;15074;50.940;5.282;2023-09-19T03:56:50;6.97;;;1.83;;
27666;SDS011;15074;50.940;5.282;2023-09-19T03:59:16;12.05;;;1.55;;
27666;SDS011;15074;50.940;5.282;2023-09-19T04:01:43;10.68;;;1.77;;
27666;SDS011;15074;50.940;5.282;2023-09-19T04:04:09;11.75;;;2.60;;
27666;SDS011;15074;50.940;5.282;2023-09-19T04:06:34;5.85;;;1.88;;
27666;SDS011;15074;50.940;5.282;2023-09-19T04:09:01;6.47;;;1.33;;
27666;SDS011;15074;50.940;5.282;2023-09-19T04:11:31;5.43;;;1.27;;
27666;SDS011;15074;50.940;5.282;2023-09-19T04:13:58;7.05;;;1.83;;
27666;SDS011;15074;50.940;5.282;2023-09-19T04:16:24;7.78;;;1.25;;
27666;SDS011;15074;50.940;5.282;2023-09-19T04:18:49;5.25;;;1.55;;
27666;SDS011;15074;50.940;5.282;2023-09-19T04:21:15;7.88;;;1.60;;
27666;SDS011;15074;50.940;5.282;2023-09-19T04:23:41;6.22;;;1.90;;
27666;SDS011;15074;50.940;5.282;2023-09-19T04:26:07;8.05;;;1.65;;
27666;SDS011;15074;50.940;5.282;2023-09-19T04:28:33;4.65;;;1.42;;
27666;SDS011;15074;50.940;5.282;2023-09-19T04:31:01;6.22;;;1.33;;
27666;SDS011;15074;50.940;5.282;2023-09-19T04:33:27;5.78;;;1.77;;
27666;SDS011;15074;50.940;5.282;2023-09-19T04:35:52;4.95;;;1.38;;
27666;SDS011;15074;50.940;5.282;2023-09-19T04:38:18;5.70;;;1.73;;
27666;SDS011;15074;50.940;5.282;2023-09-19T04:40:44;8.10;;;1.85;;
27666;SDS011;15074;50.940;5.282;2023-09-19T04:43:10;6.97;;;1.92;;
27666;SDS011;15074;50.940;5.282;2023-09-19T04:45:36;6.25;;;1.65;;
27666;SDS011;15074;50.940;5.282;2023-09-19T04:48:04;6.18;;;1.67;;
27666;SDS011;15074;50.940;5.282;2023-09-19T04:50:31;7.50;;;1.97;;
27666;SDS011;15074;50.940;5.282;2023-09-19T04:52:57;13.93;;;2.47;;
27666;SDS011;15074;50.940;5.282;2023-09-19T04:55:24;12.15;;;2.28;;
27666;SDS011;15074;50.940;5.282;2023-09-19T04:57:49;14.43;;;1.70;;
27666;SDS011;15074;50.940;5.282;2023-09-19T05:00:16;5.50;;;1.33;;
27666;SDS011;15074;50.940;5.282;2023-09-19T05:02:43;5.65;;;1.77;;
27666;SDS011;15074;50.940;5.282;2023-09-19T05:05:10;6.78;;;1.63;;
27666;SDS011;15074;50.940;5.282;2023-09-19T05:07:36;7.07;;;1.85;;
27666;SDS011;15074;50.940;5.282;2023-09-19T05:10:03;8.00;;;1.75;;
27666;SDS011;15074;50.940;5.282;2023-09-19T05:12:33;5.50;;;1.52;;
27666;SDS011;15074;50.940;5.282;2023-09-19T05:14:59;9.00;;;2.05;;
27666;SDS011;15074;50.940;5.282;2023-09-19T05:17:26;8.88;;;2.20;;
27666;SDS011;15074;50.940;5.282;2023-09-19T05:19:52;11.23;;;2.63;;
27666;SDS011;15074;50.940;5.282;2023-09-19T05:22:18;8.35;;;2.10;;
27666;SDS011;15074;50.940;5.282;2023-09-19T05:24:43;5.43;;;1.75;;
27666;SDS011;15074;50.940;5.282;2023-09-19T05:27:13;7.63;;;2.08;;
27666;SDS011;15074;50.940;5.282;2023-09-19T05:29:44;9.20;;;1.98;;
27666;SDS011;15074;50.940;5.282;2023-09-19T05:32:10;6.50;;;1.52;;
27666;SDS011;15074;50.940;5.282;2023-09-19T05:34:36;7.10;;;2.03;;
27666;SDS011;15074;50.940;5.282;2023-09-19T05:37:03;6.28;;;2.22;;
27666;SDS011;15074;50.940;5.282;2023-09-19T05:39:30;10.20;;;2.15;;
27666;SDS011;15074;50.940;5.282;2023-09-19T05:41:56;5.85;;;1.70;;
27666;SDS011;15074;50.940;5.282;2023-09-19T05:44:22;5.93;;;1.60;;
27666;SDS011;15074;50.940;5.282;2023-09-19T05:46:48;9.70;;;2.05;;
27666;SDS011;15074;50.940;5.282;2023-09-19T05:49:14;6.13;;;1.63;;
27666;SDS011;15074;50.940;5.282;2023-09-19T05:51:40;6.93;;;2.15;;
27666;SDS011;15074;50.940;5.282;2023-09-19T05:54:06;6.07;;;1.40;;
27666;SDS011;15074;50.940;5.282;2023-09-19T05:56:32;7.32;;;1.75;;
27666;SDS011;15074;50.940;5.282;2023-09-19T05:58:57;7.03;;;1.67;;
27666;SDS011;15074;50.940;5.282;2023-09-19T06:01:24;8.93;;;2.10;;
27666;SDS011;15074;50.940;5.282;2023-09-19T06:03:50;4.75;;;1.52;;
27666;SDS011;15074;50.940;5.282;2023-09-19T06:06:16;8.15;;;2.08;;
27666;SDS011;15074;50.940;5.282;2023-09-19T06:08:41;8.60;;;2.13;;
27666;SDS011;15074;50.940;5.282;2023-09-19T06:11:10;6.35;;;1.73;;
27666;SDS011;15074;50.940;5.282;2023-09-19T06:13:36;16.23;;;2.50;;
27666;SDS011;15074;50.940;5.282;2023-09-19T06:16:04;5.68;;;1.75;;
27666;SDS011;15074;50.940;5.282;2023-09-19T06:18:30;8.30;;;1.45;;
27666;SDS011;15074;50.940;5.282;2023-09-19T06:20:58;6.20;;;1.98;;
27666;SDS011;15074;50.940;5.282;2023-09-19T06:23:25;6.90;;;1.90;;
27666;SDS011;15074;50.940;5.282;2023-09-19T06:25:52;5.53;;;1.33;;
27666;SDS011;15074;50.940;5.282;2023-09-19T06:28:21;7.97;;;1.48;;
27666;SDS011;15074;50.940;5.282;2023-09-19T06:30:50;5.60;;;2.00;;
27666;SDS011;15074;50.940;5.282;2023-09-19T06:33:16;7.85;;;1.90;;
27666;SDS011;15074;50.940;5.282;2023-09-19T06:35:43;5.25;;;1.42;;
27666;SDS011;15074;50.940;5.282;2023-09-19T06:38:09;7.85;;;1.73;;
27666;SDS011;15074;50.940;5.282;2023-09-19T06:40:38;6.53;;;1.58;;
27666;SDS011;15074;50.940;5.282;2023-09-19T06:43:04;8.50;;;1.83;;
27666;SDS011;15074;50.940;5.282;2023-09-19T06:45:30;8.57;;;1.88;;
27666;SDS011;15074;50.940;5.282;2023-09-19T06:47:57;12.48;;;1.92;;
27666;SDS011;15074;50.940;5.282;2023-09-19T06:50:24;5.03;;;1.38;;
27666;SDS011;15074;50.940;5.282;2023-09-19T06:52:52;7.38;;;2.22;;
27666;SDS011;15074;50.940;5.282;2023-09-19T06:57:46;6.00;;;1.75;;
27666;SDS011;15074;50.940;5.282;2023-09-19T07:00:12;10.68;;;1.70;;
27666;SDS011;15074;50.940;5.282;2023-09-19T07:02:56;4.93;;;1.45;;
27666;SDS011;15074;50.940;5.282;2023-09-19T07:05:29;7.30;;;1.75;;
27666;SDS011;15074;50.940;5.282;2023-09-19T07:07:59;5.55;;;1.80;;
27666;SDS011;15074;50.940;5.282;2023-09-19T07:10:26;11.73;;;2.40;;
27666;SDS011;15074;50.940;5.282;2023-09-19T07:12:58;5.70;;;2.00;;
27666;SDS011;15074;50.940;5.282;2023-09-19T07:15:25;4.93;;;1.23;;
27666;SDS011;15074;50.940;5.282;2023-09-19T07:17:52;7.70;;;1.67;;
27666;SDS011;15074;50.940;5.282;2023-09-19T07:20:19;7.03;;;1.73;;
27666;SDS011;15074;50.940;5.282;2023-09-19T07:22:45;7.22;;;1.63;;
27666;SDS011;15074;50.940;5.282;2023-09-19T07:25:13;9.88;;;1.83;;
27666;SDS011;15074;50.940;5.282;2023-09-19T07:27:40;5.15;;;1.33;;
27666;SDS011;15074;50.940;5.282;2023-09-19T07:30:07;11.73;;;1.87;;
27666;SDS011;15074;50.940;5.282;2023-09-19T07:32:34;4.35;;;1.35;;
27666;SDS011;15074;50.940;5.282;2023-09-19T07:35:03;7.03;;;1.50;;
27666;SDS011;15074;50.940;5.282;2023-09-19T07:37:30;7.05;;;1.27;;
27666;SDS011;15074;50.940;5.282;2023-09-19T07:39:58;5.18;;;1.45;;
27666;SDS011;15074;50.940;5.282;2023-09-19T07:42:25;5.15;;;1.58;;
27666;SDS011;15074;50.940;5.282;2023-09-19T07:44:51;3.88;;;1.30;;
27666;SDS011;15074;50.940;5.282;2023-09-19T07:47:18;5.68;;;1.33;;
27666;SDS011;15074;50.940;5.282;2023-09-19T07:49:46;6.10;;;2.08;;
27666;SDS011;15074;50.940;5.282;2023-09-19T07:52:13;5.47;;;1.13;;
27666;SDS011;15074;50.940;5.282;2023-09-19T07:54:39;6.57;;;1.48;;
27666;SDS011;15074;50.940;5.282;2023-09-19T07:57:06;6.65;;;1.30;;
27666;SDS011;15074;50.940;5.282;2023-09-19T07:59:32;4.78;;;1.27;;
27666;SDS011;15074;50.940;5.282;2023-09-19T08:01:57;5.40;;;1.38;;
27666;SDS011;15074;50.940;5.282;2023-09-19T08:04:23;6.40;;;1.55;;
27666;SDS011;15074;50.940;5.282;2023-09-19T08:06:51;5.38;;;1.23;;
27666;SDS011;15074;50.940;5.282;2023-09-19T08:09:17;5.32;;;1.13;;
27666;SDS011;15074;50.940;5.282;2023-09-19T08:11:46;4.35;;;1.00;;
27666;SDS011;15074;50.940;5.282;2023-09-19T08:14:13;3.85;;;1.27;;
27666;SDS011;15074;50.940;5.282;2023-09-19T08:16:39;3.75;;;1.15;;
27666;SDS011;15074;50.940;5.282;2023-09-19T08:19:05;4.85;;;1.70;;
27666;SDS011;15074;50.940;5.282;2023-09-19T08:21:31;5.07;;;2.25;;
27666;SDS011;15074;50.940;5.282;2023-09-19T08:23:57;5.85;;;1.38;;
27666;SDS011;15074;50.940;5.282;2023-09-19T08:26:22;5.82;;;1.45;;
27666;SDS011;15074;50.940;5.282;2023-09-19T08:28:49;5.07;;;1.02;;
27666;SDS011;15074;50.940;5.282;2023-09-19T08:31:16;5.88;;;1.52;;
27666;SDS011;15074;50.940;5.282;2023-09-19T08:33:42;6.03;;;1.42;;
27666;SDS011;15074;50.940;5.282;2023-09-19T08:36:10;4.95;;;1.42;;
27666;SDS011;15074;50.940;5.282;2023-09-19T08:38:39;3.20;;;1.10;;
27666;SDS011;15074;50.940;5.282;2023-09-19T08:41:05;2.63;;;1.00;;
27666;SDS011;15074;50.940;5.282;2023-09-19T08:46:20;3.40;;;0.80;;
27666;SDS011;15074;50.940;5.282;2023-09-19T08:48:54;3.88;;;1.20;;
27666;SDS011;15074;50.940;5.282;2023-09-19T08:51:42;5.13;;;1.40;;
27666;SDS011;15074;50.940;5.282;2023-09-19T08:54:24;6.70;;;1.38;;
27666;SDS011;15074;50.940;5.282;2023-09-19T08:56:53;11.73;;;2.08;;
27666;SDS011;15074;50.940;5.282;2023-09-19T08:59:22;8.40;;;1.53;;
27666;SDS011;15074;50.940;5.282;2023-09-19T09:01:54;4.03;;;1.30;;
27666;SDS011;15074;50.940;5.282;2023-09-19T09:04:22;4.63;;;1.65;;
27666;SDS011;15074;50.940;5.282;2023-09-19T09:06:47;4.25;;;1.27;;
27666;SDS011;15074;50.940;5.282;2023-09-19T09:09:18;5.03;;;1.60;;
27666;SDS011;15074;50.940;5.282;2023-09-19T09:11:44;4.70;;;1.40;;
27666;SDS011;15074;50.940;5.282;2023-09-19T09:14:12;5.88;;;1.48;;
27666;SDS011;15074;50.940;5.282;2023-09-19T09:16:39;5.32;;;1.52;;
27666;SDS011;15074;50.940;5.282;2023-09-19T09:19:05;4.28;;;1.42;;
27666;SDS011;15074;50.940;5.282;2023-09-19T09:21:30;3.85;;;1.23;;
27666;SDS011;15074;50.940;5.282;2023-09-19T09:24:25;5.47;;;1.50;;
27666;SDS011;15074;50.940;5.282;2023-09-19T09:26:54;3.58;;;1.13;;
27666;SDS011;15074;50.940;5.282;2023-09-19T09:32:19;4.95;;;1.15;;
27666;SDS011;15074;50.940;5.282;2023-09-19T09:34:55;3.55;;;1.00;;
27666;SDS011;15074;50.940;5.282;2023-09-19T09:37:22;4.70;;;1.45;;
27666;SDS011;15074;50.940;5.282;2023-09-19T09:39:51;3.60;;;1.42;;
27666;SDS011;15074;50.940;5.282;2023-09-19T09:42:37;4.35;;;1.00;;
27666;SDS011;15074;50.940;5.282;2023-09-19T09:45:19;5.28;;;1.48;;
27666;SDS011;15074;50.940;5.282;2023-09-19T09:47:57;3.67;;;1.42;;
27666;SDS011;15074;50.940;5.282;2023-09-19T09:52:54;4.55;;;1.10;;
27666;SDS011;15074;50.940;5.282;2023-09-19T09:55:36;4.82;;;1.27;;
27666;SDS011;15074;50.940;5.282;2023-09-19T09:58:26;6.25;;;1.77;;
27666;SDS011;15074;50.940;5.282;2023-09-19T10:00:55;5.57;;;1.27;;
27666;SDS011;15074;50.940;5.282;2023-09-19T10:03:34;6.95;;;1.80;;
27666;SDS011;15074;50.940;5.282;2023-09-19T10:06:10;6.93;;;1.60;;
27666;SDS011;15074;50.940;5.282;2023-09-19T10:09:01;7.97;;;1.27;;
27666;SDS011;15074;50.940;5.282;2023-09-19T10:11:46;4.03;;;1.10;;
27666;SDS011;15074;50.940;5.282;2023-09-19T10:14:22;6.45;;;1.38;;
27666;SDS011;15074;50.940;5.282;2023-09-19T10:16:56;3.70;;;1.23;;
27666;SDS011;15074;50.940;5.282;2023-09-19T10:19:30;4.65;;;1.10;;
27666;SDS011;15074;50.940;5.282;2023-09-19T10:22:15;3.65;;;1.35;;
27666;SDS011;15074;50.940;5.282;2023-09-19T10:24:47;4.82;;;1.20;;
27666;SDS011;15074;50.940;5.282;2023-09-19T10:27:19;5.03;;;1.00;;
27666;SDS011;15074;50.940;5.282;2023-09-19T10:29:48;4.80;;;1.40;;
27666;SDS011;15074;50.940;5.282;2023-09-19T10:32:21;5.95;;;1.15;;
27666;SDS011;15074;50.940;5.282;2023-09-19T10:34:48;1.75;;;0.80;;
27666;SDS011;15074;50.940;5.282;2023-09-19T10:37:15;3.03;;;1.17;;
27666;SDS011;15074;50.940;5.282;2023-09-19T10:39:45;5.10;;;1.63;;
27666;SDS011;15074;50.940;5.282;2023-09-19T10:42:18;5.15;;;1.00;;
27666;SDS011;15074;50.940;5.282;2023-09-19T10:44:45;4.05;;;1.10;;
27666;SDS011;15074;50.940;5.282;2023-09-19T10:47:18;1.90;;;1.00;;
27666;SDS011;15074;50.940;5.282;2023-09-19T10:49:45;2.22;;;0.82;;
27666;SDS011;15074;50.940;5.282;2023-09-19T10:52:12;2.80;;;0.90;;
27666;SDS011;15074;50.940;5.282;2023-09-19T10:54:48;5.57;;;0.90;;
27666;SDS011;15074;50.940;5.282;2023-09-19T10:57:20;3.90;;;1.00;;
27666;SDS011;15074;50.940;5.282;2023-09-19T11:00:04;4.35;;;1.13;;
27666;SDS011;15074;50.940;5.282;2023-09-19T11:09:04;3.15;;;0.98;;
27666;SDS011;15074;50.940;5.282;2023-09-19T11:30:30;2.05;;;0.60;;
27666;SDS011;15074;50.940;5.282;2023-09-19T11:33:20;2.83;;;0.70;;
27666;SDS011;15074;50.940;5.282;2023-09-19T11:36:05;3.15;;;0.70;;
27666;SDS011;15074;50.940;5.282;2023-09-19T11:49:18;1.67;;;0.60;;
27666;SDS011;15074;50.940;5.282;2023-09-19T11:51:50;2.10;;;0.50;;
27666;SDS011;15074;50.940;5.282;2023-09-19T11:54:19;3.30;;;0.80;;
27666;SDS011;15074;50.940;5.282;2023-09-19T11:59:25;1.70;;;0.80;;
27666;SDS011;15074;50.940;5.282;2023-09-19T12:02:01;1.77;;;0.57;;
27666;SDS011;15074;50.940;5.282;2023-09-19T12:04:41;1.50;;;0.50;;
27666;SDS011;15074;50.940;5.282;2023-09-19T12:07:09;0.87;;;0.43;;
27666;SDS011;15074;50.940;5.282;2023-09-19T12:09:44;1.95;;;0.57;;
27666;SDS011;15074;50.940;5.282;2023-09-19T12:12:22;1.75;;;0.45;;
27666;SDS011;15074;50.940;5.282;2023-09-19T12:14:49;3.00;;;0.63;;
27666;SDS011;15074;50.940;5.282;2023-09-19T12:17:15;1.83;;;0.60;;
27666;SDS011;15074;50.940;5.282;2023-09-19T12:22:18;1.88;;;0.60;;
27666;SDS011;15074;50.940;5.282;2023-09-19T12:24:46;3.40;;;0.60;;
27666;SDS011;15074;50.940;5.282;2023-09-19T12:27:13;7.50;;;0.68;;
27666;SDS011;15074;50.940;5.282;2023-09-19T12:29:56;2.67;;;0.55;;
27666;SDS011;15074;50.940;5.282;2023-09-19T12:32:34;3.03;;;0.60;;
27666;SDS011;15074;50.940;5.282;2023-09-19T12:35:01;2.53;;;0.60;;
27666;SDS011;15074;50.940;5.282;2023-09-19T12:37:32;3.33;;;0.50;;
27666;SDS011;15074;50.940;5.282;2023-09-19T12:40:07;4.43;;;0.98;;
27666;SDS011;15074;50.940;5.282;2023-09-19T12:42:44;1.80;;;0.40;;
27666;SDS011;15074;50.940;5.282;2023-09-19T12:45:11;2.15;;;0.40;;
27666;SDS011;15074;50.940;5.282;2023-09-19T12:47:40;1.35;;;0.40;;
27666;SDS011;15074;50.940;5.282;2023-09-19T12:50:26;2.55;;;0.50;;
27666;SDS011;15074;50.940;5.282;2023-09-19T12:52:54;2.88;;;0.60;;
27666;SDS011;15074;50.940;5.282;2023-09-19T12:55:22;1.85;;;0.40;;
27666;SDS011;15074;50.940;5.282;2023-09-19T12:58:30;2.33;;;0.70;;
27666;SDS011;15074;50.940;5.282;2023-09-19T13:00:41;2.60;;;0.68;;
27666;SDS011;15074;50.940;5.282;2023-09-19T13:03:16;4.15;;;0.47;;
27666;SDS011;15074;50.940;5.282;2023-09-19T13:05:56;1.13;;;0.40;;
27666;SDS011;15074;50.940;5.282;2023-09-19T13:08:34;2.83;;;0.70;;
27666;SDS011;15074;50.940;5.282;2023-09-19T13:11:12;0.47;;;0.30;;
27666;SDS011;15074;50.940;5.282;2023-09-19T13:16:19;2.03;;;0.90;;
27666;SDS011;15074;50.940;5.282;2023-09-19T13:21:16;1.85;;;0.40;;
27666;SDS011;15074;50.940;5.282;2023-09-19T13:23:52;1.75;;;0.57;;
27666;SDS011;15074;50.940;5.282;2023-09-19T13:26:21;2.35;;;0.50;;
27666;SDS011;15074;50.940;5.282;2023-09-19T13:28:47;3.08;;;0.77;;
27666;SDS011;15074;50.940;5.282;2023-09-19T13:31:14;1.40;;;0.47;;
27666;SDS011;15074;50.940;5.282;2023-09-19T13:33:43;1.52;;;0.43;;
27666;SDS011;15074;50.940;5.282;2023-09-19T13:36:10;2.55;;;0.50;;
27666;SDS011;15074;50.940;5.282;2023-09-19T13:38:38;1.95;;;0.50;;
27666;SDS011;15074;50.940;5.282;2023-09-19T13:41:05;3.10;;;0.60;;
27666;SDS011;15074;50.940;5.282;2023-09-19T13:43:31;2.78;;;0.63;;
27666;SDS011;15074;50.940;5.282;2023-09-19T13:45:57;2.28;;;0.50;;
27666;SDS011;15074;50.940;5.282;2023-09-19T13:48:23;3.80;;;0.55;;
27666;SDS011;15074;50.940;5.282;2023-09-19T13:50:49;2.67;;;0.50;;
27666;SDS011;15074;50.940;5.282;2023-09-19T13:53:15;2.45;;;0.63;;
27666;SDS011;15074;50.940;5.282;2023-09-19T13:55:41;2.20;;;0.50;;
27666;SDS011;15074;50.940;5.282;2023-09-19T13:58:07;2.08;;;0.50;;
27666;SDS011;15074;50.940;5.282;2023-09-19T14:00:36;2.90;;;0.52;;
27666;SDS011;15074;50.940;5.282;2023-09-19T14:03:01;1.38;;;0.47;;
27666;SDS011;15074;50.940;5.282;2023-09-19T14:05:29;2.63;;;0.60;;
27666;SDS011;15074;50.940;5.282;2023-09-19T14:07:55;3.17;;;0.60;;
27666;SDS011;15074;50.940;5.282;2023-09-19T14:10:21;7.82;;;0.70;;
27666;SDS011;15074;50.940;5.282;2023-09-19T14:12:47;2.67;;;0.60;;
27666;SDS011;15074;50.940;5.282;2023-09-19T14:15:13;1.63;;;0.50;;
27666;SDS011;15074;50.940;5.282;2023-09-19T14:17:39;3.42;;;0.70;;
27666;SDS011;15074;50.940;5.282;2023-09-19T14:20:09;1.10;;;0.45;;
27666;SDS011;15074;50.940;5.282;2023-09-19T14:22:36;5.07;;;1.02;;
27666;SDS011;15074;50.940;5.282;2023-09-19T14:25:02;1.75;;;0.60;;
27666;SDS011;15074;50.940;5.282;2023-09-19T14:27:29;2.05;;;0.70;;
27666;SDS011;15074;50.940;5.282;2023-09-19T14:29:55;1.13;;;0.50;;
27666;SDS011;15074;50.940;5.282;2023-09-19T14:32:22;1.50;;;0.55;;
27666;SDS011;15074;50.940;5.282;2023-09-19T14:34:48;0.95;;;0.50;;
27666;SDS011;15074;50.940;5.282;2023-09-19T14:37:14;2.70;;;0.82;;
27666;SDS011;15074;50.940;5.282;2023-09-19T14:39:41;2.72;;;0.70;;
27666;SDS011;15074;50.940;5.282;2023-09-19T14:42:10;2.13;;;0.70;;
27666;SDS011;15074;50.940;5.282;2023-09-19T14:44:36;1.50;;;0.50;;
27666;SDS011;15074;50.940;5.282;2023-09-19T14:47:05;1.13;;;0.55;;
27666;SDS011;15074;50.940;5.282;2023-09-19T14:49:35;3.00;;;0.80;;
27666;SDS011;15074;50.940;5.282;2023-09-19T14:52:03;1.58;;;0.60;;
27666;SDS011;15074;50.940;5.282;2023-09-19T14:54:29;4.53;;;0.90;;
27666;SDS011;15074;50.940;5.282;2023-09-19T14:56:55;2.00;;;0.75;;
27666;SDS011;15074;50.940;5.282;2023-09-19T14:59:30;11.32;;;0.90;;
27666;SDS011;15074;50.940;5.282;2023-09-19T15:01:57;2.35;;;0.60;;
27666;SDS011;15074;50.940;5.282;2023-09-19T15:04:23;2.00;;;0.50;;
27666;SDS011;15074;50.940;5.282;2023-09-19T15:06:49;2.63;;;0.75;;
27666;SDS011;15074;50.940;5.282;2023-09-19T15:09:16;1.48;;;0.65;;
27666;SDS011;15074;50.940;5.282;2023-09-19T15:11:44;3.15;;;0.70;;
27666;SDS011;15074;50.940;5.282;2023-09-19T15:14:09;5.05;;;0.80;;
27666;SDS011;15074;50.940;5.282;2023-09-19T15:16:35;2.78;;;0.57;;
27666;SDS011;15074;50.940;5.282;2023-09-19T15:19:01;2.70;;;0.68;;
27666;SDS011;15074;50.940;5.282;2023-09-19T15:21:27;3.22;;;0.70;;
27666;SDS011;15074;50.940;5.282;2023-09-19T15:23:52;1.52;;;0.70;;
27666;SDS011;15074;50.940;5.282;2023-09-19T15:26:18;2.47;;;0.55;;
27666;SDS011;15074;50.940;5.282;2023-09-19T15:28:45;2.20;;;0.50;;
27666;SDS011;15074;50.940;5.282;2023-09-19T15:31:12;3.17;;;0.77;;
27666;SDS011;15074;50.940;5.282;2023-09-19T15:33:38;2.30;;;0.77;;
27666;SDS011;15074;50.940;5.282;2023-09-19T15:38:31;4.07;;;0.80;;
27666;SDS011;15074;50.940;5.282;2023-09-19T15:41:18;2.92;;;0.73;;
27666;SDS011;15074;50.940;5.282;2023-09-19T15:43:45;2.65;;;0.80;;
27666;SDS011;15074;50.940;5.282;2023-09-19T15:46:11;3.40;;;0.70;;
27666;SDS011;15074;50.940;5.282;2023-09-19T15:48:38;2.28;;;0.75;;
27666;SDS011;15074;50.940;5.282;2023-09-19T15:51:04;2.85;;;1.10;;
27666;SDS011;15074;50.940;5.282;2023-09-19T15:53:34;7.00;;;6.32;;
27666;SDS011;15074;50.940;5.282;2023-09-19T15:56:06;4.25;;;1.00;;
27666;SDS011;15074;50.940;5.282;2023-09-19T15:58:32;3.30;;;0.93;;
27666;SDS011;15074;50.940;5.282;2023-09-19T16:01:04;3.20;;;0.80;;
27666;SDS011;15074;50.940;5.282;2023-09-19T16:03:31;4.60;;;0.70;;
27666;SDS011;15074;50.940;5.282;2023-09-19T16:05:56;2.90;;;0.75;;
27666;SDS011;15074;50.940;5.282;2023-09-19T16:08:22;3.67;;;0.80;;
27666;SDS011;15074;50.940;5.282;2023-09-19T16:10:48;3.58;;;0.70;;
27666;SDS011;15074;50.940;5.282;2023-09-19T16:13:13;3.97;;;0.90;;
27666;SDS011;15074;50.940;5.282;2023-09-19T16:15:42;2.90;;;0.82;;
27666;SDS011;15074;50.940;5.282;2023-09-19T16:18:10;2.38;;;0.70;;
27666;SDS011;15074;50.940;5.282;2023-09-19T16:20:36;2.35;;;0.82;;